Time;durP1;ratioP1;P1;durP2;ratioP2;P2;SDS_P1;SDS_P2;PMS_P1;PMS_P2;Temp;Humidity;BMP_temperature;BMP_pressure;BME280_temperature;BME280_humidity;BME280_pressure;Samples;Min_cycle;Max_cycle;Signal;HPM_P1;HPM_P2
2021/04/19 00:00:20;;;;;;;1.33;1.23;;;17.30;79.30;;;;;;4941583;28;97105;-54
2021/04/19 00:02:51;;;;;;;2.28;1.50;;;17.30;79.20;;;;;;4944721;28;95908;-56
2021/04/19 00:05:23;;;;;;;1.88;1.63;;;17.30;79.30;;;;;;4949939;28;95711;-51
2021/04/19 00:07:53;;;;;;;2.72;1.60;;;17.30;79.30;;;;;;4937013;28;98113;-55
2021/04/19 00:10:24;;;;;;;2.78;1.55;;;17.30;79.30;;;;;;4942789;28;97293;-56
2021/04/19 00:12:56;;;;;;;1.67;1.20;;;17.30;79.30;;;;;;4944998;28;95898;-55
2021/04/19 00:15:28;;;;;;;2.00;1.40;;;17.30;79.30;;;;;;4944397;28;95278;-55
2021/04/19 00:18:00;;;;;;;2.75;1.48;;;17.30;79.20;;;;;;4941344;28;105139;-53
2021/04/19 00:20:31;;;;;;;1.63;1.50;;;17.30;79.20;;;;;;4944607;28;95717;-52
2021/04/19 00:23:02;;;;;;;;;;;17.30;79.30;;;;;;4945744;28;96919;-54
2021/04/19 00:25:32;;;;;;;1.65;1.08;;;17.30;79.40;;;;;;4946615;28;95839;-56
2021/04/19 00:28:04;;;;;;;1.05;0.98;;;17.30;79.30;;;;;;4947772;28;96600;-52
2021/04/19 00:30:35;;;;;;;1.77;1.17;;;17.30;79.30;;;;;;4946623;28;95754;-55
2021/04/19 00:33:04;;;;;;;1.23;1.10;;;17.30;79.40;;;;;;4949738;28;95675;-51
2021/04/19 00:35:34;;;;;;;1.10;1.00;;;17.30;79.40;;;;;;4949413;28;97528;-54
2021/04/19 00:38:04;;;;;;;1.58;1.20;;;17.30;79.40;;;;;;4972652;28;95931;-53
2021/04/19 00:40:36;;;;;;;1.48;1.35;;;17.30;79.60;;;;;;4949835;28;95997;-54
2021/04/19 00:43:07;;;;;;;1.65;1.52;;;17.30;79.90;;;;;;4944558;28;95687;-53
2021/04/19 00:45:38;;;;;;;1.92;1.23;;;17.30;79.90;;;;;;4941428;28;95326;-56
2021/04/19 00:48:10;;;;;;;1.33;1.23;;;17.20;79.70;;;;;;4944827;28;95855;-53
2021/04/19 00:50:40;;;;;;;1.50;1.40;;;17.30;79.80;;;;;;4946977;28;95977;-51
2021/04/19 00:53:11;;;;;;;1.88;1.25;;;17.30;80.00;;;;;;4942762;28;95630;-53
2021/04/19 00:55:40;;;;;;;1.40;0.97;;;17.30;80.00;;;;;;4943677;28;95704;-53
2021/04/19 00:58:11;;;;;;;2.08;1.67;;;17.30;80.00;;;;;;4941403;28;95933;-53
2021/04/19 01:00:42;;;;;;;2.90;1.10;;;17.30;79.80;;;;;;4927251;28;95576;-53
2021/04/19 01:03:12;;;;;;;1.63;1.52;;;17.30;79.70;;;;;;4935646;28;95787;-55
2021/04/19 01:05:43;;;;;;;1.50;1.27;;;17.30;79.70;;;;;;4932902;28;95302;-53
2021/04/19 01:08:14;;;;;;;1.90;1.70;;;17.30;79.70;;;;;;4933022;28;96043;-52
2021/04/19 01:10:47;;;;;;;2.27;1.50;;;17.30;79.70;;;;;;4934860;28;95694;-52
2021/04/19 01:13:17;;;;;;;3.03;1.60;;;17.30;79.70;;;;;;4942734;28;95520;-55
2021/04/19 01:15:47;;;;;;;2.63;1.10;;;17.30;79.70;;;;;;4937252;28;96989;-55
2021/04/19 01:18:17;;;;;;;1.40;1.27;;;17.30;79.70;;;;;;4931732;28;95910;-55
2021/04/19 01:20:49;;;;;;;2.00;1.43;;;17.30;79.70;;;;;;4942251;28;95687;-55
2021/04/19 01:23:21;;;;;;;1.40;1.30;;;17.30;79.70;;;;;;4953372;28;95720;-55
2021/04/19 01:25:56;;;;;;;2.42;1.33;;;17.30;79.50;;;;;;4936743;28;95995;-55
2021/04/19 01:28:47;;;;;;;1.98;1.60;;;17.30;79.40;;;;;;4949457;28;96274;-53
2021/04/19 01:31:18;;;;;;;1.85;1.33;;;17.30;79.40;;;;;;4950584;28;101600;-52
2021/04/19 01:33:48;;;;;;;1.45;1.33;;;17.40;79.70;;;;;;4961084;28;95949;-52
2021/04/19 01:36:18;;;;;;;1.30;1.23;;;17.30;79.70;;;;;;4944411;28;99439;-51
2021/04/19 01:38:48;;;;;;;2.00;1.58;;;17.30;79.70;;;;;;4942227;28;96068;-54
2021/04/19 01:41:18;;;;;;;2.28;1.83;;;17.40;79.70;;;;;;4946342;28;95415;-54
2021/04/19 01:43:49;;;;;;;2.00;1.65;;;17.30;79.90;;;;;;4945088;28;95676;-51
2021/04/19 01:46:19;;;;;;;1.55;1.15;;;17.30;79.60;;;;;;4938100;28;95740;-51
2021/04/19 01:48:49;;;;;;;2.63;1.52;;;17.30;79.60;;;;;;4956361;28;98496;-55
2021/04/19 01:51:19;;;;;;;4.55;1.67;;;17.40;79.50;;;;;;4940920;28;95941;-55
2021/04/19 01:53:49;;;;;;;2.10;1.58;;;17.40;79.70;;;;;;4939161;28;95985;-51
2021/04/19 01:56:20;;;;;;;2.47;1.45;;;17.40;79.70;;;;;;4945437;28;96041;-56
2021/04/19 01:58:50;;;;;;;1.83;1.37;;;17.40;79.70;;;;;;4946629;28;95942;-52
2021/04/19 02:01:22;;;;;;;3.33;1.90;;;17.40;79.70;;;;;;4942199;28;99656;-56
2021/04/19 02:03:56;;;;;;;1.40;1.30;;;17.40;79.70;;;;;;4945940;28;96166;-55
2021/04/19 02:07:00;;;;;;;1.90;1.50;;;17.40;79.70;;;;;;4946253;28;95837;-54
2021/04/19 02:09:49;;;;;;;1.73;1.20;;;17.40;79.60;;;;;;4943155;28;95862;-56
2021/04/19 02:13:06;;;;;;;1.90;1.70;;;17.40;79.60;;;;;;4975612;28;97314;-55
2021/04/19 02:15:44;;;;;;;2.25;1.10;;;17.40;79.60;;;;;;4945219;28;96141;-56
2021/04/19 02:18:28;;;;;;;3.63;1.42;;;17.40;79.60;;;;;;4943857;28;102194;-55
2021/04/19 02:21:06;;;;;;;1.60;1.30;;;17.40;79.60;;;;;;4944680;28;95870;-56
2021/04/19 02:23:46;;;;;;;2.45;1.20;;;17.40;79.60;;;;;;4945070;28;97688;-54
2021/04/19 02:26:31;;;;;;;2.03;1.48;;;17.40;79.60;;;;;;4948012;28;95701;-57
2021/04/19 02:29:14;;;;;;;1.73;1.63;;;17.40;79.50;;;;;;4945094;28;95474;-52
2021/04/19 02:32:03;;;;;;;2.85;1.73;;;17.50;79.40;;;;;;4942145;28;98836;-54
2021/04/19 02:34:41;;;;;;;1.73;1.50;;;17.50;79.50;;;;;;4946286;28;95909;-50
2021/04/19 02:37:13;;;;;;;2.30;1.45;;;17.50;79.40;;;;;;4949883;28;95857;-56
2021/04/19 02:39:46;;;;;;;1.50;1.40;;;17.50;79.30;;;;;;4971943;28;96581;-57
2021/04/19 02:42:18;;;;;;;1.60;1.50;;;17.60;79.30;;;;;;4953490;28;96923;-54
2021/04/19 02:44:52;;;;;;;1.95;1.60;;;17.60;79.20;;;;;;4945360;28;95543;-55
2021/04/19 02:47:44;;;;;;;3.50;1.37;;;17.70;79.10;;;;;;4939240;28;95758;-56
2021/04/19 02:50:28;;;;;;;1.30;1.20;;;17.70;79.00;;;;;;4948767;28;95658;-57
2021/04/19 02:52:59;;;;;;;2.38;1.50;;;17.80;79.00;;;;;;4950358;28;95919;-54
2021/04/19 02:55:31;;;;;;;1.25;1.15;;;17.80;78.80;;;;;;4938162;28;95310;-57
2021/04/19 02:58:03;;;;;;;1.42;1.27;;;17.80;78.90;;;;;;4932326;28;95316;-57
2021/04/19 03:00:48;;;;;;;1.17;1.08;;;17.90;79.00;;;;;;4934836;28;97261;-58
2021/04/19 03:03:27;;;;;;;2.35;1.33;;;17.90;78.80;;;;;;4934026;28;95543;-55
2021/04/19 03:06:05;;;;;;;1.35;1.00;;;17.90;78.80;;;;;;4936208;28;95730;-56
2021/04/19 03:08:42;;;;;;;2.28;1.17;;;17.90;78.80;;;;;;4939784;28;95561;-57
2021/04/19 03:11:24;;;;;;;6.30;1.08;;;18.00;78.90;;;;;;4930739;28;95686;-54
2021/04/19 03:13:56;;;;;;;1.55;1.20;;;18.10;78.80;;;;;;4937743;28;97992;-55
2021/04/19 03:16:44;;;;;;;1.73;1.30;;;18.10;78.70;;;;;;4931752;28;95989;-57
2021/04/19 03:19:19;;;;;;;1.80;1.30;;;18.10;78.60;;;;;;4949145;28;97243;-57
2021/04/19 03:21:52;;;;;;;5.20;1.20;;;18.20;78.70;;;;;;4974519;28;95907;-54
2021/04/19 03:24:28;;;;;;;1.60;1.10;;;18.20;78.60;;;;;;4947415;28;96246;-53
2021/04/19 03:27:09;;;;;;;1.83;1.08;;;18.20;78.60;;;;;;4944005;28;95499;-54
2021/04/19 03:29:47;;;;;;;1.63;1.13;;;18.20;78.50;;;;;;4982689;28;96136;-57
2021/04/19 03:32:26;;;;;;;2.50;1.15;;;18.30;78.40;;;;;;4946208;28;95766;-57
2021/04/19 03:35:04;;;;;;;1.98;1.20;;;18.30;78.30;;;;;;4951298;28;96269;-54
2021/04/19 03:37:37;;;;;;;0.90;0.90;;;18.40;77.80;;;;;;4935957;28;95614;-56
2021/04/19 03:40:22;;;;;;;1.83;1.30;;;18.40;78.30;;;;;;4940628;28;95591;-54
2021/04/19 03:43:00;;;;;;;2.53;1.15;;;18.40;78.10;;;;;;4947621;28;95753;-57
2021/04/19 03:45:36;;;;;;;1.42;0.90;;;18.40;78.00;;;;;;4947618;28;96263;-51
2021/04/19 03:48:27;;;;;;;1.35;1.08;;;18.40;78.10;;;;;;4948003;28;98696;-56
2021/04/19 03:51:08;;;;;;;1.08;0.98;;;18.50;77.90;;;;;;4941407;28;95818;-54
2021/04/19 03:53:49;;;;;;;1.17;0.90;;;18.50;77.70;;;;;;4931440;28;95957;-53
2021/04/19 03:56:23;;;;;;;1.58;1.10;;;18.50;77.60;;;;;;4928990;28;96116;-57
2021/04/19 03:59:12;;;;;;;0.70;0.70;;;18.50;77.50;;;;;;4930657;28;97876;-53
2021/04/19 04:01:52;;;;;;;1.27;1.00;;;18.50;77.30;;;;;;4927021;28;96058;-53
2021/04/19 04:04:24;;;;;;;1.30;1.17;;;18.50;77.30;;;;;;4947609;28;96067;-52
2021/04/19 04:07:05;;;;;;;1.35;0.90;;;18.60;77.30;;;;;;4937459;28;98322;-58
2021/04/19 04:09:42;;;;;;;1.90;0.80;;;18.60;77.20;;;;;;4947595;28;97404;-52
2021/04/19 04:12:13;;;;;;;0.82;0.82;;;18.60;77.10;;;;;;4932455;28;96064;-53
2021/04/19 04:14:53;;;;;;;1.10;1.00;;;18.60;77.10;;;;;;4936771;28;95596;-53
2021/04/19 04:17:32;;;;;;;1.13;0.82;;;18.70;77.50;;;;;;4941072;28;96690;-57
2021/04/19 04:20:08;;;;;;;1.48;1.13;;;18.70;77.50;;;;;;4946710;28;95822;-55
2021/04/19 04:22:53;;;;;;;2.10;0.80;;;18.70;77.30;;;;;;4938424;28;95774;-57
2021/04/19 04:25:30;;;;;;;3.22;0.80;;;18.70;77.20;;;;;;4943809;28;96171;-56
2021/04/19 04:28:05;;;;;;;1.17;1.10;;;18.70;77.20;;;;;;4946824;28;96040;-55
2021/04/19 04:30:47;;;;;;;0.75;0.75;;;18.70;77.20;;;;;;4936982;28;95982;-55
2021/04/19 04:33:23;;;;;;;0.88;0.75;;;18.70;77.10;;;;;;4944819;28;95750;-56
2021/04/19 04:36:16;;;;;;;1.40;1.02;;;18.70;76.90;;;;;;4940778;28;95708;-56
2021/04/19 04:38:54;;;;;;;1.42;0.90;;;18.80;77.00;;;;;;4946392;28;96213;-57
2021/04/19 04:41:31;;;;;;;1.67;0.88;;;18.80;76.80;;;;;;4936753;28;95747;-55
2021/04/19 04:44:04;;;;;;;1.17;0.90;;;18.80;76.80;;;;;;4958121;28;97183;-57
2021/04/19 04:46:41;;;;;;;1.08;0.90;;;18.80;76.80;;;;;;4935414;28;95996;-57
2021/04/19 04:49:22;;;;;;;0.77;0.77;;;18.80;76.70;;;;;;4942223;28;95877;-55
2021/04/19 04:51:57;;;;;;;1.92;1.38;;;18.80;76.70;;;;;;4934577;28;97154;-56
2021/04/19 04:54:29;;;;;;;0.60;0.60;;;18.80;76.50;;;;;;4945979;28;95675;-56
2021/04/19 04:57:02;;;;;;;0.65;0.57;;;18.80;76.60;;;;;;4949545;28;95798;-59
2021/04/19 04:59:34;;;;;;;1.05;0.80;;;18.80;76.60;;;;;;4948526;28;96056;-53
2021/04/19 05:02:08;;;;;;;0.75;0.75;;;18.80;76.50;;;;;;4946891;28;95783;-56
2021/04/19 05:04:39;;;;;;;0.77;0.77;;;18.80;76.50;;;;;;4933088;28;95681;-57
2021/04/19 05:07:09;;;;;;;1.00;0.88;;;18.90;76.40;;;;;;4945657;28;95735;-55
2021/04/19 05:09:47;;;;;;;1.00;0.85;;;18.80;76.40;;;;;;4927752;28;96493;-52
2021/04/19 05:12:17;;;;;;;0.70;0.70;;;18.90;76.30;;;;;;4929133;28;95571;-52
2021/04/19 05:15:09;;;;;;;1.30;0.98;;;18.80;76.30;;;;;;4929732;28;95539;-56
2021/04/19 05:17:39;;;;;;;1.00;1.00;;;18.90;76.30;;;;;;4930962;28;95763;-52
2021/04/19 05:20:12;;;;;;;1.10;0.93;;;18.90;76.30;;;;;;4946787;28;96084;-58
2021/04/19 05:22:45;;;;;;;0.82;0.70;;;18.90;76.30;;;;;;4945610;28;95862;-58
2021/04/19 05:25:20;;;;;;;1.02;0.70;;;18.90;76.30;;;;;;4928310;28;95919;-57
2021/04/19 05:27:54;;;;;;;2.15;0.80;;;18.90;76.30;;;;;;4943016;28;95551;-55
2021/04/19 05:30:27;;;;;;;0.88;0.47;;;18.90;76.30;;;;;;4941009;28;96440;-57
2021/04/19 05:33:00;;;;;;;0.93;0.57;;;18.90;76.30;;;;;;4938619;28;95646;-55
2021/04/19 05:35:31;;;;;;;0.65;0.60;;;18.90;76.30;;;;;;4931403;28;95648;-58
2021/04/19 05:38:03;;;;;;;0.85;0.85;;;18.90;76.30;;;;;;4931344;28;95544;-55
2021/04/19 05:40:36;;;;;;;0.98;0.75;;;18.90;76.30;;;;;;4932360;28;96353;-56
2021/04/19 05:43:08;;;;;;;0.70;0.70;;;18.90;76.20;;;;;;4929118;28;95940;-58
2021/04/19 05:45:41;;;;;;;0.70;0.70;;;18.90;76.30;;;;;;4959990;28;95797;-57
2021/04/19 05:48:11;;;;;;;0.75;0.75;;;18.90;76.10;;;;;;4931089;28;95222;-56
2021/04/19 05:50:42;;;;;;;1.55;0.80;;;18.90;76.20;;;;;;4931389;28;96551;-54
2021/04/19 05:53:13;;;;;;;0.60;0.60;;;18.90;76.20;;;;;;4931140;28;95874;-56
2021/04/19 05:55:44;;;;;;;0.68;0.68;;;18.90;76.10;;;;;;4961757;28;95837;-57
2021/04/19 05:58:24;;;;;;;0.80;0.70;;;18.90;76.10;;;;;;4928183;28;95225;-54
2021/04/19 06:01:07;;;;;;;0.85;0.85;;;18.90;76.10;;;;;;4956675;28;95888;-58
2021/04/19 06:04:05;;;;;;;1.17;1.08;;;18.90;76.10;;;;;;4930432;28;99123;-56
2021/04/19 06:07:23;;;;;;;1.00;0.77;;;18.90;76.10;;;;;;4931215;28;95709;-52
2021/04/19 06:10:22;;;;;;;1.52;0.68;;;18.90;76.10;;;;;;4931751;28;95916;-56
2021/04/19 06:12:59;;;;;;;1.15;0.70;;;18.90;76.10;;;;;;4928930;28;96191;-58
2021/04/19 06:15:30;;;;;;;0.65;0.65;;;18.90;76.10;;;;;;4923733;28;96641;-59
2021/04/19 06:18:01;;;;;;;0.95;0.77;;;18.90;76.00;;;;;;4929834;28;95806;-54
2021/04/19 06:20:34;;;;;;;0.95;0.63;;;18.90;76.00;;;;;;4932007;28;95402;-58
2021/04/19 06:23:06;;;;;;;0.55;0.55;;;18.90;76.00;;;;;;4930284;28;98171;-58
2021/04/19 06:25:37;;;;;;;0.63;0.63;;;18.90;76.10;;;;;;4933958;28;95952;-56
2021/04/19 06:28:08;;;;;;;0.43;0.43;;;18.90;76.10;;;;;;4961061;28;95442;-59
2021/04/19 06:30:41;;;;;;;3.72;0.73;;;18.90;76.10;;;;;;4926231;28;98583;-55
2021/04/19 06:33:15;;;;;;;0.88;0.70;;;18.80;76.10;;;;;;4928659;28;96307;-59
2021/04/19 06:35:46;;;;;;;0.50;0.50;;;18.90;76.10;;;;;;4933445;28;95715;-58
2021/04/19 06:38:17;;;;;;;1.30;0.90;;;18.90;76.10;;;;;;4930109;28;95796;-55
2021/04/19 06:40:50;;;;;;;0.65;0.65;;;18.90;76.10;;;;;;4932058;28;95843;-56
2021/04/19 06:43:20;;;;;;;0.70;0.70;;;18.90;76.00;;;;;;4933806;28;95890;-54
2021/04/19 06:45:51;;;;;;;0.77;0.70;;;18.90;76.00;;;;;;4928741;28;95368;-58
2021/04/19 06:48:20;;;;;;;1.30;0.75;;;18.90;76.00;;;;;;4932294;28;95819;-59
2021/04/19 06:50:51;;;;;;;0.85;0.75;;;18.90;76.40;;;;;;4931175;28;102894;-56
2021/04/19 06:53:23;;;;;;;0.88;0.70;;;18.90;76.00;;;;;;4930964;28;96528;-56
2021/04/19 06:55:56;;;;;;;0.82;0.68;;;18.90;76.10;;;;;;4930154;28;95656;-56
2021/04/19 06:58:26;;;;;;;;;;;18.90;76.00;;;;;;4933268;28;95766;-57
2021/04/19 07:00:58;;;;;;;0.65;0.63;;;18.90;76.00;;;;;;4932218;28;95735;-56
2021/04/19 07:03:30;;;;;;;0.80;0.68;;;18.90;76.00;;;;;;4932924;28;97029;-56
2021/04/19 07:06:02;;;;;;;0.65;0.65;;;18.90;76.00;;;;;;4930658;28;96040;-57
2021/04/19 07:08:42;;;;;;;0.63;0.63;;;18.90;76.00;;;;;;4932852;28;95857;-55
2021/04/19 07:11:20;;;;;;;0.73;0.73;;;18.90;76.00;;;;;;4933506;28;95857;-60
2021/04/19 07:13:50;;;;;;;0.85;0.70;;;18.90;75.90;;;;;;4932569;28;95949;-55
2021/04/19 07:16:21;;;;;;;0.40;0.40;;;18.90;75.90;;;;;;4929469;28;95702;-57
2021/04/19 07:18:59;;;;;;;0.68;0.65;;;18.90;76.00;;;;;;4949313;28;95538;-59
2021/04/19 07:21:30;;;;;;;1.00;0.80;;;18.90;75.90;;;;;;4947816;28;95834;-56
2021/04/19 07:24:06;;;;;;;0.85;0.70;;;18.90;75.90;;;;;;4930694;28;95858;-57
2021/04/19 07:26:38;;;;;;;0.70;0.70;;;18.80;75.90;;;;;;4931142;28;95751;-57
2021/04/19 07:29:10;;;;;;;0.93;0.70;;;18.80;75.90;;;;;;4948571;28;95908;-54
2021/04/19 07:31:55;;;;;;;0.80;0.80;;;18.80;75.80;;;;;;4947983;28;95789;-58
2021/04/19 07:34:30;;;;;;;1.15;0.57;;;18.80;75.90;;;;;;4951139;28;95977;-55
2021/04/19 07:37:08;;;;;;;1.83;0.70;;;18.80;75.90;;;;;;4948724;28;95768;-58
2021/04/19 07:39:40;;;;;;;1.15;0.80;;;18.80;75.90;;;;;;4929570;28;95807;-59
2021/04/19 07:42:12;;;;;;;0.50;0.50;;;18.80;75.90;;;;;;4932267;28;95719;-59
2021/04/19 07:44:55;;;;;;;1.50;0.50;;;18.80;75.90;;;;;;4932734;28;96023;-55
2021/04/19 07:47:43;;;;;;;0.47;0.47;;;18.80;76.00;;;;;;4931069;28;95463;-59
2021/04/19 07:50:24;;;;;;;0.73;0.73;;;18.80;76.00;;;;;;4934724;28;95821;-58
2021/04/19 07:53:08;;;;;;;0.60;0.60;;;18.80;76.00;;;;;;4939026;28;95320;-56
2021/04/19 07:55:47;;;;;;;0.60;0.60;;;18.80;75.90;;;;;;4946010;28;95913;-56
2021/04/19 07:58:22;;;;;;;0.73;0.73;;;18.80;75.90;;;;;;4935629;28;95428;-57
2021/04/19 08:01:02;;;;;;;0.50;0.50;;;18.80;75.90;;;;;;4930818;28;95277;-55
2021/04/19 08:03:42;;;;;;;0.63;0.40;;;18.80;75.90;;;;;;4943245;28;98732;-60
2021/04/19 08:06:20;;;;;;;0.50;0.50;;;18.80;75.90;;;;;;4947657;28;96317;-57
2021/04/19 08:08:51;;;;;;;0.45;0.45;;;18.80;75.80;;;;;;4944781;28;95999;-54
2021/04/19 08:11:20;;;;;;;1.02;0.95;;;18.80;75.80;;;;;;4947584;28;95973;-56
2021/04/19 08:13:50;;;;;;;0.93;0.60;;;18.80;75.80;;;;;;4945567;28;95705;-58
2021/04/19 08:16:20;;;;;;;0.45;0.45;;;18.80;75.90;;;;;;4942041;28;98702;-54
2021/04/19 08:19:06;;;;;;;0.75;0.52;;;18.80;76.00;;;;;;4941542;28;103582;-52
2021/04/19 08:21:36;;;;;;;0.60;0.60;;;18.70;75.90;;;;;;4968287;28;95743;-54
2021/04/19 08:24:16;;;;;;;0.45;0.45;;;18.70;75.90;;;;;;4935085;28;95959;-54
2021/04/19 08:27:00;;;;;;;0.50;0.50;;;18.70;75.90;;;;;;4949510;28;95939;-54
2021/04/19 08:29:39;;;;;;;1.05;0.80;;;18.70;75.90;;;;;;4942069;28;95688;-58
2021/04/19 08:32:11;;;;;;;0.55;0.55;;;18.70;76.50;;;;;;4945651;28;96962;-55
2021/04/19 08:34:42;;;;;;;1.42;1.10;;;18.70;75.90;;;;;;4947282;28;95164;-56
2021/04/19 08:37:12;;;;;;;0.65;0.55;;;18.70;75.90;;;;;;4950996;28;95865;-54
2021/04/19 08:39:43;;;;;;;0.55;0.55;;;18.70;75.90;;;;;;4937972;28;95819;-53
2021/04/19 08:42:24;;;;;;;0.68;0.60;;;18.70;75.80;;;;;;4943789;28;95755;-58
2021/04/19 08:44:57;;;;;;;0.50;0.50;;;18.70;75.90;;;;;;4938874;28;95798;-56
2021/04/19 08:47:28;;;;;;;0.90;0.60;;;18.70;75.90;;;;;;4925252;28;96040;-57
2021/04/19 08:50:01;;;;;;;0.75;0.75;;;18.70;75.90;;;;;;4929304;28;95667;-53
2021/04/19 08:52:32;;;;;;;0.50;0.50;;;18.70;75.90;;;;;;4943362;28;95588;-56
2021/04/19 08:55:07;;;;;;;0.68;0.60;;;18.70;75.90;;;;;;4941674;28;95324;-54
2021/04/19 08:57:40;;;;;;;0.40;0.40;;;18.70;76.50;;;;;;4930655;28;96044;-57
2021/04/19 09:00:26;;;;;;;0.85;0.35;;;18.70;75.90;;;;;;4936188;28;95720;-58
2021/04/19 09:03:01;;;;;;;0.77;0.50;;;18.70;76.60;;;;;;4934386;28;95316;-55
2021/04/19 09:05:32;;;;;;;0.55;0.45;;;18.70;75.90;;;;;;4946493;28;95739;-54
2021/04/19 09:08:05;;;;;;;0.65;0.65;;;18.60;75.90;;;;;;4945930;28;96611;-55
2021/04/19 09:11:10;;;;;;;0.57;0.57;;;18.70;75.80;;;;;;4946384;28;95664;-55
2021/04/19 09:13:45;;;;;;;1.55;0.40;;;18.60;75.90;;;;;;4948946;28;98361;-54
2021/04/19 09:16:19;;;;;;;0.63;0.50;;;18.60;75.80;;;;;;4936999;28;95286;-56
2021/04/19 09:18:55;;;;;;;0.70;0.70;;;18.60;75.80;;;;;;4929106;28;96583;-56
2021/04/19 09:21:44;;;;;;;0.43;0.43;;;18.60;75.80;;;;;;4927153;28;97365;-53
2021/04/19 09:24:25;;;;;;;1.00;0.77;;;18.60;75.90;;;;;;4935817;28;95468;-57
2021/04/19 09:26:59;;;;;;;0.38;0.38;;;18.60;75.80;;;;;;4940760;28;96865;-56
2021/04/19 09:29:38;;;;;;;0.50;0.50;;;18.60;75.80;;;;;;4941237;28;96597;-57
2021/04/19 09:32:17;;;;;;;0.85;0.68;;;18.60;75.80;;;;;;4929549;28;95347;-56
2021/04/19 09:34:53;;;;;;;0.52;0.52;;;18.60;75.80;;;;;;4938935;28;95628;-53
2021/04/19 09:37:38;;;;;;;1.67;0.63;;;18.60;75.70;;;;;;4945534;28;95744;-56
2021/04/19 09:40:23;;;;;;;0.93;0.57;;;18.60;75.70;;;;;;4948394;28;98515;-54
2021/04/19 09:43:11;;;;;;;0.52;0.52;;;18.60;75.80;;;;;;4931104;28;95846;-57
2021/04/19 09:45:47;;;;;;;0.43;0.43;;;18.60;75.80;;;;;;4958591;28;95551;-56
2021/04/19 09:48:31;;;;;;;1.30;0.73;;;18.60;75.70;;;;;;4931072;28;95592;-56
2021/04/19 09:51:03;;;;;;;0.63;0.40;;;18.50;75.70;;;;;;4931208;28;96066;-55
2021/04/19 09:53:33;;;;;;;1.45;0.52;;;18.60;75.80;;;;;;4959372;28;96399;-54
2021/04/19 09:56:04;;;;;;;;;;;18.50;75.70;;;;;;4931098;28;95787;-54
2021/04/19 09:58:39;;;;;;;0.82;0.65;;;18.60;75.70;;;;;;4934784;28;95525;-56
2021/04/19 10:01:10;;;;;;;0.60;0.43;;;18.50;75.70;;;;;;4924952;28;98052;-53
2021/04/19 10:03:47;;;;;;;0.50;0.50;;;18.50;75.70;;;;;;4934549;28;96021;-57
2021/04/19 10:06:36;;;;;;;0.70;0.70;;;18.50;75.80;;;;;;4928842;28;95347;-54
2021/04/19 10:09:16;;;;;;;1.30;0.68;;;18.50;75.70;;;;;;4960182;28;95701;-53
2021/04/19 10:11:50;;;;;;;1.05;0.60;;;18.50;75.80;;;;;;4928448;28;95866;-54
2021/04/19 10:14:21;;;;;;;0.30;0.30;;;18.50;75.80;;;;;;4935441;28;95667;-53
2021/04/19 10:16:53;;;;;;;0.50;0.50;;;18.50;75.70;;;;;;4932038;28;96614;-52
2021/04/19 10:19:29;;;;;;;0.30;0.30;;;18.50;75.70;;;;;;4963146;28;97983;-53
2021/04/19 10:22:10;;;;;;;0.85;0.60;;;18.50;75.70;;;;;;4948357;28;95792;-54
2021/04/19 10:24:59;;;;;;;0.85;0.57;;;18.50;75.80;;;;;;4949356;28;95858;-56
2021/04/19 10:27:31;;;;;;;1.13;0.40;;;18.50;75.80;;;;;;4947640;28;95917;-53
2021/04/19 10:30:19;;;;;;;0.52;0.52;;;18.50;75.70;;;;;;4930579;28;95742;-57
2021/04/19 10:32:49;;;;;;;0.52;0.52;;;18.50;75.70;;;;;;4931432;28;102470;-56
2021/04/19 10:35:39;;;;;;;0.47;0.43;;;18.50;75.80;;;;;;4934092;28;96019;-54
2021/04/19 10:38:16;;;;;;;0.43;0.43;;;18.50;75.70;;;;;;4934456;28;95835;-55
2021/04/19 10:40:56;;;;;;;1.23;0.70;;;18.50;75.70;;;;;;4934625;28;95696;-51
2021/04/19 10:43:27;;;;;;;1.45;1.35;;;18.50;75.70;;;;;;4945350;28;95587;-52
2021/04/19 10:45:58;;;;;;;3.92;0.90;;;18.50;75.60;;;;;;4937386;28;97529;-54
2021/04/19 10:48:32;;;;;;;2.50;1.33;;;18.40;75.50;;;;;;4933078;28;95572;-54
2021/04/19 10:51:23;;;;;;;1.65;1.20;;;18.40;75.60;;;;;;4938832;28;95661;-54
2021/04/19 10:53:55;;;;;;;2.20;1.30;;;18.40;75.50;;;;;;4935656;28;96096;-55
2021/04/19 10:56:26;;;;;;;1.63;1.40;;;18.40;75.60;;;;;;4950903;28;95294;-53
2021/04/19 10:59:07;;;;;;;3.47;1.17;;;18.30;75.60;;;;;;4941804;28;95963;-55
2021/04/19 11:01:40;;;;;;;2.20;1.52;;;18.30;75.50;;;;;;4943611;28;97834;-54
2021/04/19 11:04:13;;;;;;;2.97;1.80;;;18.30;75.50;;;;;;4948728;28;95879;-56
2021/04/19 11:06:44;;;;;;;3.55;1.55;;;18.20;75.50;;;;;;4944555;28;95409;-57
2021/04/19 11:09:20;;;;;;;2.05;1.10;;;18.20;75.50;;;;;;4945961;28;97752;-57
2021/04/19 11:11:51;;;;;;;3.38;0.88;;;18.20;75.60;;;;;;4946134;28;95579;-55
2021/04/19 11:14:26;;;;;;;;;;;18.20;75.50;;;;;;4943941;28;95837;-56
2021/04/19 11:17:04;;;;;;;2.90;1.70;;;18.20;76.20;;;;;;4942784;28;95890;-57
2021/04/19 11:19:45;;;;;;;3.90;1.48;;;18.10;75.50;;;;;;4942386;28;95990;-55
2021/04/19 11:22:47;;;;;;;2.70;1.25;;;18.10;75.50;;;;;;4946980;28;95912;-56
2021/04/19 11:25:27;;;;;;;2.33;1.40;;;18.10;75.60;;;;;;4939469;28;95851;-56
2021/04/19 11:28:20;;;;;;;3.05;1.48;;;18.10;75.50;;;;;;4949509;28;95709;-52
2021/04/19 11:30:53;;;;;;;3.25;1.35;;;18.10;75.50;;;;;;4969189;28;105011;-55
2021/04/19 11:33:27;;;;;;;2.28;1.50;;;18.10;75.40;;;;;;4946066;28;95724;-53
2021/04/19 11:36:02;;;;;;;1.60;1.50;;;18.10;75.50;;;;;;4940188;28;96036;-53
2021/04/19 11:38:35;;;;;;;1.48;0.98;;;18.00;75.40;;;;;;4947634;28;95766;-56
2021/04/19 11:41:15;;;;;;;3.55;1.17;;;18.00;75.50;;;;;;4945868;28;95257;-53
2021/04/19 11:43:50;;;;;;;1.05;0.95;;;18.00;75.50;;;;;;4945185;28;95914;-54
2021/04/19 11:46:22;;;;;;;3.33;1.40;;;18.00;75.40;;;;;;4941788;28;96409;-56
2021/04/19 11:48:54;;;;;;;3.47;1.90;;;18.00;75.50;;;;;;4950188;28;96074;-54
2021/04/19 11:51:25;;;;;;;1.70;1.00;;;17.90;75.40;;;;;;4971884;28;95784;-53
2021/04/19 11:53:56;;;;;;;2.72;1.20;;;18.00;75.50;;;;;;4932064;28;95413;-54
2021/04/19 11:56:27;;;;;;;4.03;0.95;;;18.00;75.50;;;;;;4933125;28;96263;-53
2021/04/19 11:58:58;;;;;;;1.60;1.45;;;18.00;75.50;;;;;;4931991;28;95804;-53
2021/04/19 12:01:29;;;;;;;2.33;1.35;;;17.90;75.50;;;;;;4934637;28;95978;-54
2021/04/19 12:04:03;;;;;;;1.40;1.10;;;17.90;75.40;;;;;;4932609;28;95712;-52
2021/04/19 12:06:34;;;;;;;2.67;1.20;;;17.90;75.40;;;;;;4929351;28;96521;-55
2021/04/19 12:09:04;;;;;;;;;;;17.90;75.40;;;;;;4932033;28;95680;-54
2021/04/19 12:11:34;;;;;;;3.28;1.48;;;17.90;75.40;;;;;;4933810;28;95633;-53
2021/04/19 12:14:03;;;;;;;1.65;1.10;;;17.90;75.40;;;;;;4932699;28;95713;-56
2021/04/19 12:16:34;;;;;;;1.63;1.08;;;17.90;75.40;;;;;;4932417;28;98011;-55
2021/04/19 12:19:06;;;;;;;1.42;1.02;;;17.90;75.40;;;;;;4963401;28;95645;-55
2021/04/19 12:21:37;;;;;;;2.47;1.35;;;17.90;75.40;;;;;;4932041;28;95370;-54
2021/04/19 12:24:09;;;;;;;2.47;1.00;;;17.80;75.30;;;;;;4929437;28;95841;-56
2021/04/19 12:26:40;;;;;;;1.52;1.00;;;17.80;75.40;;;;;;4931924;28;95868;-53
2021/04/19 12:29:13;;;;;;;1.98;1.13;;;17.80;75.40;;;;;;4932245;28;95726;-53
2021/04/19 12:31:44;;;;;;;1.58;0.90;;;17.90;75.40;;;;;;4927514;28;96219;-54
2021/04/19 12:34:14;;;;;;;1.40;0.90;;;17.80;75.40;;;;;;4935686;28;95587;-56
2021/04/19 12:36:44;;;;;;;3.97;1.25;;;17.80;75.30;;;;;;4944834;28;96519;-56
2021/04/19 12:39:15;;;;;;;4.22;1.27;;;17.80;75.40;;;;;;4942759;28;95353;-54
2021/04/19 12:41:50;;;;;;;1.00;0.90;;;17.80;75.40;;;;;;4930528;28;95824;-55
2021/04/19 12:44:24;;;;;;;3.42;1.60;;;17.80;75.50;;;;;;4935339;28;95881;-54
2021/04/19 12:46:54;;;;;;;2.58;1.33;;;17.70;75.20;;;;;;4929289;28;95882;-56
2021/04/19 12:49:24;;;;;;;4.68;1.02;;;17.80;75.40;;;;;;4929641;28;95553;-55
2021/04/19 12:51:53;;;;;;;1.95;1.10;;;17.70;75.40;;;;;;4934061;28;95577;-56
2021/04/19 12:54:23;;;;;;;1.73;1.08;;;17.70;75.50;;;;;;4930229;28;95697;-53
2021/04/19 12:56:52;;;;;;;1.35;1.15;;;17.70;75.40;;;;;;4960492;28;95966;-55
2021/04/19 12:59:24;;;;;;;2.72;1.20;;;17.80;75.40;;;;;;4929363;28;95634;-52
2021/04/19 13:01:55;;;;;;;2.10;1.40;;;17.70;75.40;;;;;;4927633;28;95827;-55
2021/04/19 13:04:25;;;;;;;;;;;17.70;75.40;;;;;;4930735;28;96000;-52
2021/04/19 13:06:55;;;;;;;3.67;1.55;;;17.70;75.40;;;;;;4930030;28;99157;-55
2021/04/19 13:09:27;;;;;;;2.92;1.42;;;17.70;75.50;;;;;;4933400;28;95881;-53
2021/04/19 13:11:57;;;;;;;4.47;1.50;;;17.70;75.40;;;;;;4931811;28;95534;-54
2021/04/19 13:14:27;;;;;;;3.58;2.42;;;17.70;75.40;;;;;;4945476;28;95735;-53
2021/04/19 13:16:58;;;;;;;4.10;1.73;;;17.60;75.40;;;;;;4933357;28;95934;-53
2021/04/19 13:19:29;;;;;;;3.43;2.13;;;17.70;75.50;;;;;;4949878;28;95858;-51
2021/04/19 13:22:01;;;;;;;4.53;2.50;;;17.70;75.40;;;;;;4939027;28;95688;-52
2021/04/19 13:24:32;;;;;;;4.18;1.90;;;17.70;75.70;;;;;;4931498;28;95534;-54
2021/04/19 13:27:03;;;;;;;;;;;17.60;75.90;;;;;;4934236;28;96109;-53
2021/04/19 13:29:34;;;;;;;3.40;2.00;;;17.70;76.00;;;;;;4931774;28;98150;-54